Terminal Aerodrome Forecast
Issued by NWS

Home | Current Version | Previous Version | Text Only | Print | Product List | Glossary On
Versions: 1 2 3 4 5 6 7 8 9 10 11 12
000
FTAK31 PAJN 271720
TAFAPG
TAF
PAPG 271720Z 2718/2818 VRB05KT 5SM -RA BR SCT005 BKN015 OVC025
     FM280800 VRB03KT 4SM -SHRA BR SCT015 OVC025=

USA.gov is the U.S. government's official web portal to all federal, state and local government web resources and services.